Time;durP1;ratioP1;P1;durP2;ratioP2;P2;SDS_P1;SDS_P2;PMS_P1;PMS_P2;Temp;Humidity;BMP_temperature;BMP_pressure;BME280_temperature;BME280_humidity;BME280_pressure;Samples;Min_cycle;Max_cycle;Signal;HPM_P1;HPM_P2
2023/01/16 00:00:55;;;;;;;30.17;12.70;;;;;;;0.54;81.11;93817.97;5006910;28;20026;-80
2023/01/16 00:03:21;;;;;;;30.58;13.35;;;;;;;0.59;81.16;93807.53;5006744;28;20224;-81
2023/01/16 00:05:47;;;;;;;26.65;13.90;;;;;;;0.62;80.94;93805.44;5006980;28;20059;-81
2023/01/16 00:08:12;;;;;;;35.78;13.68;;;;;;;0.63;80.60;93807.78;5005696;28;20022;-81
2023/01/16 00:10:38;;;;;;;27.42;12.90;;;;;;;0.66;80.30;93812.56;5006696;28;20049;-81
2023/01/16 00:13:04;;;;;;;28.38;14.07;;;;;;;0.68;79.74;93809.69;5006617;28;20073;-81
2023/01/16 00:15:30;;;;;;;27.55;14.15;;;;;;;0.70;79.78;93802.34;5006648;28;20233;-81
2023/01/16 00:17:55;;;;;;;28.30;12.57;;;;;;;0.67;79.53;93808.91;5006613;28;20022;-81
2023/01/16 00:20:21;;;;;;;26.88;12.90;;;;;;;0.67;79.31;93803.66;5006402;28;20220;-81
2023/01/16 00:22:46;;;;;;;26.38;12.48;;;;;;;0.66;78.75;93804.69;5006528;28;20044;-81
2023/01/16 00:25:12;;;;;;;25.73;13.05;;;;;;;0.70;78.63;93807.59;5006442;28;20061;-80
2023/01/16 00:27:38;;;;;;;32.00;12.68;;;;;;;0.69;78.34;93791.06;5005944;28;20022;-81
2023/01/16 00:30:04;;;;;;;26.13;14.02;;;;;;;0.64;78.27;93785.78;5005802;28;20260;-80
2023/01/16 00:32:30;;;;;;;28.50;13.13;;;;;;;0.68;78.43;93783.44;5006170;28;20085;-81
2023/01/16 00:34:55;;;;;;;28.23;13.70;;;;;;;0.64;78.40;93777.13;5006095;28;20022;-80
2023/01/16 00:37:21;;;;;;;33.05;14.75;;;;;;;0.66;78.11;93785.53;5005913;28;20042;-80
2023/01/16 00:39:46;;;;;;;30.08;13.65;;;;;;;0.68;78.09;93778.19;5006160;28;20019;-80
2023/01/16 00:42:12;;;;;;;23.83;12.52;;;;;;;0.64;77.98;93785.78;5005971;28;20025;-80
2023/01/16 00:44:37;;;;;;;28.50;12.80;;;;;;;0.62;77.80;93773.97;5004825;28;20018;-81
2023/01/16 00:47:04;;;;;;;27.13;11.88;;;;;;;0.62;76.98;93771.34;5006231;28;20019;-82
2023/01/16 00:49:29;;;;;;;26.70;13.05;;;;;;;0.60;76.99;93771.59;5004814;28;20023;-81
2023/01/16 00:51:55;;;;;;;29.17;12.88;;;;;;;0.59;76.96;93776.06;5006068;28;20019;-81
2023/01/16 00:54:20;;;;;;;28.10;14.55;;;;;;;0.58;76.75;93777.09;5005935;28;20313;-81
2023/01/16 00:56:46;;;;;;;29.02;14.57;;;;;;;0.56;77.50;93778.38;5005840;28;20022;-81
2023/01/16 00:59:11;;;;;;;32.38;13.48;;;;;;;0.57;77.66;93785.19;5005699;28;20018;-81
2023/01/16 01:01:37;;;;;;;32.83;15.65;;;;;;;0.53;78.09;93779.69;5005776;28;20025;-80
2023/01/16 01:04:03;;;;;;;41.70;14.35;;;;;;;0.57;78.60;93777.31;5004412;28;20089;-80
2023/01/16 01:06:28;;;;;;;37.75;16.65;;;;;;;0.58;79.02;93771.84;5005623;28;20028;-80
2023/01/16 01:08:54;;;;;;;29.33;14.10;;;;;;;0.59;79.44;93773.44;5005683;28;20090;-80
2023/01/16 01:11:21;;;;;;;27.60;13.65;;;;;;;0.56;79.67;93771.31;5005407;28;20050;-81
2023/01/16 01:13:46;;;;;;;31.67;14.93;;;;;;;0.58;79.98;93768.44;5005622;28;20018;-81
2023/01/16 01:16:12;;;;;;;28.05;13.77;;;;;;;0.55;80.15;93768.91;5005708;28;20198;-82
2023/01/16 01:18:38;;;;;;;30.63;14.88;;;;;;;0.58;80.06;93769.22;5005629;28;20220;-80
2023/01/16 01:21:04;;;;;;;34.97;14.70;;;;;;;0.56;79.73;93766.06;5004179;28;20081;-80
2023/01/16 01:23:30;;;;;;;191.77;21.42;;;;;;;0.53;79.82;93758.72;5005240;28;20208;-80
2023/01/16 01:25:55;;;;;;;113.63;15.48;;;;;;;0.45;80.89;93764.41;5005171;28;20022;-80
2023/01/16 01:28:20;;;;;;;156.73;16.63;;;;;;;0.34;82.51;93758.28;5005282;28;20022;-80
2023/01/16 01:30:46;;;;;;;172.48;19.70;;;;;;;0.30;83.33;93764.31;5005284;28;20248;-80
2023/01/16 01:33:12;;;;;;;118.53;17.92;;;;;;;0.29;83.82;93758.28;5004996;28;20025;-80
2023/01/16 01:35:37;;;;;;;74.57;18.40;;;;;;;0.30;83.91;93756.44;5005206;28;20046;-80
2023/01/16 01:38:03;;;;;;;58.63;17.60;;;;;;;0.34;83.97;93747.81;5004916;28;20050;-81
2023/01/16 01:40:29;;;;;;;80.13;17.80;;;;;;;0.39;84.14;93754.94;5004989;28;20213;-81
2023/01/16 01:42:55;;;;;;;54.35;17.38;;;;;;;0.42;83.91;93733.44;5004910;28;20030;-80
2023/01/16 01:45:24;;;;;;;47.20;17.95;;;;;;;0.45;83.88;93727.72;5004733;28;20023;-81
2023/01/16 01:48:12;;;;;;;43.90;17.60;;;;;;;0.46;83.52;93726.66;5004679;28;20252;-79
2023/01/16 01:51:01;;;;;;;38.03;18.10;;;;;;;0.49;82.84;93718.28;5004968;28;20045;-79
2023/01/16 01:53:29;;;;;;;41.08;16.00;;;;;;;0.46;82.37;93726.66;5003486;28;20015;-80
2023/01/16 01:55:59;;;;;;;36.40;16.13;;;;;;;0.42;81.64;93725.56;5004728;28;20026;-81
2023/01/16 01:58:26;;;;;;;31.63;14.70;;;;;;;0.36;80.78;93730.00;5004733;28;20189;-81
2023/01/16 02:00:55;;;;;;;36.40;17.02;;;;;;;0.35;80.55;93719.78;5003496;28;20209;-81
2023/01/16 02:03:32;;;;;;;32.15;15.40;;;;;;;0.34;80.62;93718.19;5004336;28;20077;-81
2023/01/16 02:06:04;;;;;;;34.22;15.65;;;;;;;0.33;80.26;93714.78;5004477;28;20316;-82
2023/01/16 02:08:32;;;;;;;31.05;15.88;;;;;;;0.34;79.39;93720.81;5004592;28;20224;-81
2023/01/16 02:11:27;;;;;;;33.95;16.08;;;;;;;0.28;79.28;93722.59;5004333;28;20026;-82
2023/01/16 02:13:59;;;;;;;32.80;15.38;;;;;;;0.26;79.55;93718.66;5004158;28;20022;-81
2023/01/16 02:19:18;;;;;;;35.15;15.55;;;;;;;0.30;79.49;93714.50;5004584;28;20033;-81
2023/01/16 02:21:58;;;;;;;29.77;15.80;;;;;;;0.32;79.58;93718.44;5004232;28;20331;-81
2023/01/16 02:24:32;;;;;;;31.70;15.15;;;;;;;0.37;79.34;93710.63;5004184;28;20053;-81
2023/01/16 02:27:27;;;;;;;31.40;14.32;;;;;;;0.41;79.12;93708.28;5002920;28;20026;-81
2023/01/16 02:30:15;;;;;;;27.92;13.38;;;;;;;0.40;78.73;93704.84;5003980;28;20033;-82
2023/01/16 02:32:59;;;;;;;29.55;14.57;;;;;;;0.43;78.46;93697.50;4975027;28;20037;-82
2023/01/16 02:35:44;;;;;;;35.13;15.88;;;;;;;0.41;78.16;93700.41;5004044;28;20018;-81
2023/01/16 02:38:26;;;;;;;42.55;16.35;;;;;;;0.42;77.90;93688.88;5004071;28;20374;-81
2023/01/16 02:41:14;;;;;;;38.90;14.93;;;;;;;0.40;77.88;93694.34;5002723;28;20057;-82
2023/01/16 02:44:09;;;;;;;35.92;16.65;;;;;;;0.40;77.59;93704.84;5002885;28;20072;-81
2023/01/16 02:46:45;;;;;;;29.33;14.63;;;;;;;0.40;77.23;93694.34;5003795;28;20089;-81
2023/01/16 02:49:47;;;;;;;26.45;12.75;;;;;;;0.38;76.78;93700.91;5003976;28;20022;-82
2023/01/16 02:52:24;;;;;;;34.70;14.43;;;;;;;0.32;77.11;93696.69;5001573;28;20358;-82
2023/01/16 02:54:59;;;;;;;31.27;13.27;;;;;;;0.33;77.86;93693.03;5003779;28;20269;-82
2023/01/16 02:57:31;;;;;;;29.60;13.07;;;;;;;0.29;78.14;93690.09;5003654;28;20169;-81
2023/01/16 02:59:56;;;;;;;30.38;13.57;;;;;;;0.22;78.22;93673.81;5003745;28;20026;-82
2023/01/16 03:02:22;;;;;;;29.00;12.52;;;;;;;0.21;77.95;93667.00;5003648;28;20077;-81
2023/01/16 03:04:50;;;;;;;26.83;12.98;;;;;;;0.24;77.98;93673.56;5003649;28;20312;-81
2023/01/16 03:07:48;;;;;;;28.48;13.63;;;;;;;0.26;78.21;93677.50;5003534;28;20080;-81
2023/01/16 03:10:41;;;;;;;26.75;12.13;;;;;;;0.25;77.93;93678.56;5003513;28;20100;-81
2023/01/16 03:13:21;;;;;;;29.10;13.25;;;;;;;0.27;78.22;93680.94;5003750;28;20034;-81
2023/01/16 03:16:16;;;;;;;30.48;13.82;;;;;;;0.26;77.93;93668.84;5003516;28;20053;-81
2023/01/16 03:18:46;;;;;;;31.65;14.52;;;;;;;0.24;77.88;93668.31;5000402;28;20034;-81
2023/01/16 03:21:24;;;;;;;32.85;13.10;;;;;;;0.25;77.97;93662.81;5003235;28;20018;-82
2023/01/16 03:24:20;;;;;;;30.23;13.88;;;;;;;0.27;77.91;93652.09;5003455;28;20351;-82
2023/01/16 03:26:52;;;;;;;30.17;12.75;;;;;;;0.26;78.44;93650.50;4998435;28;20034;-82
2023/01/16 03:29:31;;;;;;;31.80;13.48;;;;;;;0.25;78.21;93649.72;5007490;28;20097;-82
2023/01/16 03:32:31;;;;;;;34.50;12.82;;;;;;;0.26;77.99;93650.50;5007558;28;20048;-80
2023/01/16 03:35:13;;;;;;;27.08;13.07;;;;;;;0.19;77.16;93642.88;5004021;28;20034;-82
2023/01/16 03:37:48;;;;;;;26.38;12.07;;;;;;;0.15;76.87;93645.19;5007534;28;20046;-80
2023/01/16 03:40:18;;;;;;;29.55;13.93;;;;;;;0.12;77.06;93629.19;5007343;28;20034;-80
2023/01/16 03:42:49;;;;;;;30.65;13.15;;;;;;;0.13;77.00;93628.94;5007107;28;20101;-80
2023/01/16 03:45:24;;;;;;;37.10;15.20;;;;;;;0.11;77.07;93623.16;5007266;28;20045;-80
2023/01/16 03:48:04;;;;;;;27.45;13.13;;;;;;;0.09;76.78;93620.00;5007115;28;20304;-79
2023/01/16 03:50:31;;;;;;;38.97;15.02;;;;;;;0.06;77.21;93602.19;5006855;28;20049;-80
2023/01/16 03:53:04;;;;;;;31.40;13.57;;;;;;;0.06;77.10;93617.91;5006954;28;20018;-79
2023/01/16 03:55:29;;;;;;;38.80;14.48;;;;;;;0.01;77.13;93612.63;5006950;28;20022;-79
2023/01/16 03:58:00;;;;;;;42.20;15.63;;;;;;;0.01;77.45;93606.59;5006870;28;20023;-80
2023/01/16 04:00:31;;;;;;;29.80;13.55;;;;;;;0.03;77.31;93599.28;5006718;28;20359;-80
2023/01/16 04:03:08;;;;;;;32.10;15.10;;;;;;;0.01;77.25;93612.63;5006746;28;20030;-81
2023/01/16 04:06:01;;;;;;;34.13;15.73;;;;;;;0.03;77.49;93615.78;5006699;28;20030;-81
2023/01/16 04:08:33;;;;;;;38.53;16.08;;;;;;;0.04;77.21;93619.97;4979725;28;20061;-81
2023/01/16 04:10:59;;;;;;;36.22;16.40;;;;;;;0.01;77.33;93606.59;5006869;28;20022;-80
2023/01/16 04:13:30;;;;;;;30.95;14.77;;;;;;;-0.01;77.46;93612.06;5006729;28;20057;-80
2023/01/16 04:15:58;;;;;;;39.97;14.50;;;;;;;-0.04;77.58;93612.56;5006430;28;20049;-80
2023/01/16 04:18:29;;;;;;;32.83;14.40;;;;;;;-0.08;78.26;93601.00;5006576;28;20224;-80
2023/01/16 04:20:54;;;;;;;26.55;12.65;;;;;;;-0.13;78.44;93606.25;5006469;28;20166;-80
2023/01/16 04:23:20;;;;;;;104.53;14.88;;;;;;;-0.18;79.10;93596.53;5006503;28;20029;-78
2023/01/16 04:25:45;;;;;;;121.38;18.85;;;;;;;-0.21;79.65;93597.81;5006459;28;20045;-78
2023/01/16 04:28:11;;;;;;;41.50;17.40;;;;;;;-0.23;80.39;93607.75;5006397;28;20106;-78
2023/01/16 04:30:36;;;;;;;74.10;15.88;;;;;;;-0.22;79.87;93601.47;5006604;28;20102;-80
2023/01/16 04:33:03;;;;;;;63.20;17.83;;;;;;;-0.23;80.19;93602.50;5006424;28;20298;-81
2023/01/16 04:35:29;;;;;;;99.10;17.13;;;;;;;-0.23;80.18;93593.84;5006115;28;20103;-80
2023/01/16 04:37:54;;;;;;;26.58;13.18;;;;;;;-0.24;80.43;93590.47;5006018;28;20263;-79
2023/01/16 04:40:20;;;;;;;36.75;15.25;;;;;;;-0.25;80.59;93586.25;5006086;28;20061;-79
2023/01/16 04:42:45;;;;;;;34.00;15.20;;;;;;;-0.22;80.20;93583.13;5006101;28;20026;-80
2023/01/16 04:45:11;;;;;;;35.58;16.27;;;;;;;-0.22;79.89;93588.38;5006427;28;20297;-81
2023/01/16 04:47:36;;;;;;;35.78;15.90;;;;;;;-0.24;79.87;93584.44;5006359;28;20050;-81
2023/01/16 04:50:02;;;;;;;58.75;22.70;;;;;;;-0.25;79.39;93594.09;5006020;28;20283;-81
2023/01/16 04:52:27;;;;;;;54.95;22.05;;;;;;;-0.27;79.22;93585.72;5004807;28;20305;-81
2023/01/16 04:54:53;;;;;;;64.03;23.08;;;;;;;-0.27;78.98;93577.84;5005825;28;20132;-81
2023/01/16 04:57:18;;;;;;;59.80;21.90;;;;;;;-0.28;78.75;93578.91;5005992;28;20021;-81
2023/01/16 04:59:44;;;;;;;54.85;20.70;;;;;;;-0.28;78.77;93583.38;5005902;28;20254;-83
2023/01/16 05:02:09;;;;;;;45.25;18.27;;;;;;;-0.30;78.21;93585.44;5006074;28;20018;-83
2023/01/16 05:04:35;;;;;;;42.17;17.38;;;;;;;-0.34;78.07;93582.53;5005479;28;20018;-81
2023/01/16 05:07:00;;;;;;;43.38;19.17;;;;;;;-0.36;77.88;93574.13;5005624;28;20019;-80
2023/01/16 05:09:26;;;;;;;33.10;15.75;;;;;;;-0.34;77.76;93582.53;5005661;28;20029;-81
2023/01/16 05:11:51;;;;;;;40.47;16.25;;;;;;;-0.35;77.33;93578.31;5005684;28;20018;-82
2023/01/16 05:14:16;;;;;;;37.75;15.52;;;;;;;-0.34;77.90;93573.91;5004278;28;20025;-81
2023/01/16 05:16:42;;;;;;;25.95;13.55;;;;;;;-0.36;78.30;93574.13;5005452;28;20044;-81
2023/01/16 05:19:08;;;;;;;31.92;13.85;;;;;;;-0.36;78.06;93568.91;5005362;28;20015;-81
2023/01/16 05:21:34;;;;;;;27.83;13.27;;;;;;;-0.36;78.06;93563.66;5005127;28;20102;-81
2023/01/16 05:23:59;;;;;;;31.15;13.32;;;;;;;-0.35;78.31;93567.06;5004939;28;20022;-80
2023/01/16 05:26:25;;;;;;;25.80;12.30;;;;;;;-0.33;78.48;93563.16;5005143;28;20025;-81
2023/01/16 05:28:50;;;;;;;38.25;14.82;;;;;;;-0.31;78.27;93553.22;5004768;28;20056;-81
2023/01/16 05:31:15;;;;;;;36.15;17.38;;;;;;;-0.28;78.44;93562.41;5005077;28;20201;-81
2023/01/16 05:33:41;;;;;;;32.97;16.77;;;;;;;-0.29;78.22;93561.59;5005048;28;20023;-81
2023/01/16 05:36:07;;;;;;;33.60;17.35;;;;;;;-0.27;78.00;93548.25;5005013;28;20042;-80
2023/01/16 05:38:32;;;;;;;32.67;13.80;;;;;;;-0.27;78.23;93538.56;5004937;28;20034;-80
2023/01/16 05:40:58;;;;;;;27.77;13.70;;;;;;;-0.25;78.16;93546.19;5004433;28;20022;-79
2023/01/16 05:43:23;;;;;;;33.13;13.23;;;;;;;-0.27;77.61;93538.56;5004710;28;20022;-81
2023/01/16 05:45:49;;;;;;;21.77;12.05;;;;;;;-0.33;77.53;93542.19;5003689;28;20022;-81
2023/01/16 05:48:14;;;;;;;30.42;13.25;;;;;;;-0.40;77.57;93549.50;5004615;28;20216;-81
2023/01/16 05:50:40;;;;;;;27.98;13.00;;;;;;;-0.43;78.43;93555.22;5003174;28;20026;-81
2023/01/16 05:53:05;;;;;;;28.38;12.60;;;;;;;-0.41;78.52;93550.53;5003154;28;20029;-82
2023/01/16 05:55:41;;;;;;;22.42;10.63;;;;;;;-0.37;78.76;93542.97;5004485;28;20057;-81
2023/01/16 05:58:11;;;;;;;24.85;12.25;;;;;;;-0.34;79.27;93547.72;5004392;28;20073;-81
2023/01/16 06:00:38;;;;;;;37.00;13.15;;;;;;;-0.28;79.21;93546.69;5004197;28;20026;-81
2023/01/16 06:03:05;;;;;;;26.85;13.98;;;;;;;-0.25;78.78;93544.34;5003829;28;20022;-81
2023/01/16 06:05:30;;;;;;;25.95;13.63;;;;;;;-0.25;78.53;93536.47;5004051;28;20028;-81
2023/01/16 06:07:56;;;;;;;27.90;13.43;;;;;;;-0.19;78.61;93539.16;5003891;28;20045;-83
2023/01/16 06:10:23;;;;;;;33.67;16.02;;;;;;;-0.16;78.48;93528.16;5004142;28;20026;-81
2023/01/16 06:12:48;;;;;;;42.97;16.05;;;;;;;-0.12;78.30;93523.97;5003974;28;20030;-82
2023/01/16 06:15:14;;;;;;;40.58;19.00;;;;;;;-0.07;78.09;93514.31;5004036;28;20014;-81
2023/01/16 06:17:39;;;;;;;39.90;18.85;;;;;;;0.00;78.06;93516.72;5003096;28;20018;-80
2023/01/16 06:20:05;;;;;;;60.38;24.90;;;;;;;0.03;78.07;93516.19;5004171;28;20024;-81
2023/01/16 06:22:30;;;;;;;60.58;25.80;;;;;;;0.08;77.79;93518.03;5003873;28;20228;-79
2023/01/16 06:24:56;;;;;;;61.42;24.52;;;;;;;0.09;78.00;93520.41;5003926;28;20022;-80
2023/01/16 06:27:21;;;;;;;49.80;23.20;;;;;;;0.13;78.15;93537.22;5003882;28;20089;-81
2023/01/16 06:29:47;;;;;;;51.67;21.25;;;;;;;0.19;78.14;93535.41;5003887;28;20042;-80
2023/01/16 06:32:12;;;;;;;48.95;20.55;;;;;;;0.24;78.37;93537.25;5003854;28;20346;-81
2023/01/16 06:34:38;;;;;;;56.83;20.38;;;;;;;0.28;78.26;93536.47;5003984;28;20010;-82
2023/01/16 06:37:03;;;;;;;45.28;18.73;;;;;;;0.35;77.93;93538.88;5002639;28;20041;-81
2023/01/16 06:39:29;;;;;;;33.13;16.17;;;;;;;0.36;77.78;93546.47;5003616;28;20085;-80
2023/01/16 06:41:54;;;;;;;38.42;19.13;;;;;;;0.32;77.85;93548.03;5002457;28;20052;-82
2023/01/16 06:44:19;;;;;;;77.38;19.77;;;;;;;0.35;77.90;93541.50;5003891;28;20022;-81
2023/01/16 06:46:45;;;;;;;82.97;20.00;;;;;;;0.35;78.41;93549.38;5003839;28;20021;-80
2023/01/16 06:49:11;;;;;;;124.70;21.15;;;;;;;0.33;79.26;93539.13;5002683;28;20354;-80
2023/01/16 06:51:36;;;;;;;190.32;20.38;;;;;;;0.35;79.75;93523.94;5003723;28;20026;-79
2023/01/16 06:54:02;;;;;;;168.40;22.55;;;;;;;0.38;80.41;93517.38;5003625;28;20041;-81
2023/01/16 06:56:29;;;;;;;106.15;20.25;;;;;;;0.46;81.44;93518.72;5003554;28;20026;-79
2023/01/16 06:58:54;;;;;;;221.88;21.60;;;;;;;0.48;81.49;93530.50;5003608;28;20022;-79
2023/01/16 07:01:20;;;;;;;155.90;19.77;;;;;;;0.49;81.78;93524.22;5003250;28;20022;-79
2023/01/16 07:03:46;;;;;;;147.15;22.60;;;;;;;0.54;82.29;93547.06;5003136;28;20366;-79
2023/01/16 07:06:12;;;;;;;146.57;21.38;;;;;;;0.55;82.75;93546.81;5003440;28;20045;-80
2023/01/16 07:08:38;;;;;;;191.95;21.95;;;;;;;0.55;83.07;93530.25;5003606;28;20022;-78
2023/01/16 07:11:04;;;;;;;156.15;23.80;;;;;;;0.58;83.60;93535.78;5003379;28;20073;-78
2023/01/16 07:13:38;;;;;;;93.70;22.77;;;;;;;0.67;84.04;93535.28;5003208;28;20374;-79
2023/01/16 07:24:08;;;;;;;59.70;20.17;;;;;;;0.88;83.04;93526.41;5002029;28;20125;-79
2023/01/16 07:26:36;;;;;;;111.55;21.50;;;;;;;0.90;83.04;93521.69;5003136;28;20100;-79
2023/01/16 07:29:05;;;;;;;67.63;22.30;;;;;;;0.93;83.27;93529.03;5002989;28;20045;-79
2023/01/16 07:31:33;;;;;;;204.45;24.13;;;;;;;1.04;83.25;93518.53;5002857;28;20030;-79
2023/01/16 07:33:58;;;;;;;122.25;24.02;;;;;;;1.05;82.55;93518.28;5002906;28;20197;-77
2023/01/16 07:36:24;;;;;;;81.57;22.80;;;;;;;1.13;82.69;93511.72;5003492;28;20045;-90
2023/01/16 07:38:49;;;;;;;60.50;21.73;;;;;;;1.19;82.70;93506.22;5002578;28;20053;-89
2023/01/16 07:41:15;;;;;;;78.18;22.80;;;;;;;1.29;82.55;93500.19;5000908;28;20029;-88
2023/01/16 07:43:41;;;;;;;62.78;21.20;;;;;;;1.36;82.30;93500.72;5001386;28;20018;-88
2023/01/16 07:46:06;;;;;;;104.40;21.65;;;;;;;1.47;81.33;93513.84;5001403;28;20325;-88
2023/01/16 07:48:34;;;;;;;91.50;23.55;;;;;;;1.42;80.92;93495.44;5001253;28;20034;-82
2023/01/16 07:51:00;;;;;;;74.68;22.15;;;;;;;1.39;80.98;93494.91;5001160;28;20027;-85
2023/01/16 07:53:28;;;;;;;65.68;21.83;;;;;;;1.38;81.40;93492.53;5003095;28;20018;-90
2023/01/16 07:55:57;;;;;;;108.68;22.27;;;;;;;1.45;81.50;93479.16;5002124;28;20316;-86
2023/01/16 07:58:23;;;;;;;96.13;22.23;;;;;;;1.47;81.04;93475.22;5002602;28;20256;-87
2023/01/16 08:00:51;;;;;;;57.13;22.20;;;;;;;1.50;81.23;93468.63;5002942;28;20022;-84
2023/01/16 08:03:17;;;;;;;53.03;23.38;;;;;;;1.57;81.32;93480.44;5002888;28;20041;-87
2023/01/16 08:05:45;;;;;;;52.95;22.27;;;;;;;1.73;81.60;93465.44;5001703;28;20316;-88
2023/01/16 08:08:12;;;;;;;59.00;23.40;;;;;;;1.88;81.60;93476.97;5003110;28;20098;-86
2023/01/16 08:10:37;;;;;;;64.63;23.83;;;;;;;2.01;81.39;93465.84;5002712;28;20022;-87
2023/01/16 08:13:03;;;;;;;73.07;27.05;;;;;;;2.18;81.33;93468.97;5002911;28;20104;-86
2023/01/16 08:15:29;;;;;;;57.80;25.67;;;;;;;2.27;80.85;93461.28;5006450;28;20069;-87
2023/01/16 08:17:54;;;;;;;64.10;27.10;;;;;;;2.39;80.52;93474.13;5006459;28;20029;-87
2023/01/16 08:20:20;;;;;;;66.32;25.42;;;;;;;2.47;79.18;93489.34;5006256;28;20033;-88
2023/01/16 08:22:49;;;;;;;82.60;26.27;;;;;;;2.36;77.72;93500.94;5006491;28;20087;-89
2023/01/16 08:25:16;;;;;;;68.65;27.23;;;;;;;2.29;77.85;93495.22;5006178;28;20045;-86
2023/01/16 08:27:42;;;;;;;79.50;27.13;;;;;;;2.29;78.19;93495.22;5006484;28;20056;-87
2023/01/16 08:30:09;;;;;;;68.28;26.83;;;;;;;2.20;78.56;93487.09;5005108;28;20027;-86
2023/01/16 08:32:34;;;;;;;84.88;28.73;;;;;;;2.25;78.46;93488.91;5005152;28;20026;-86
2023/01/16 08:35:00;;;;;;;70.28;29.05;;;;;;;2.28;78.39;93481.28;5005894;28;20024;-87
2023/01/16 08:37:26;;;;;;;72.60;28.83;;;;;;;2.33;78.40;93462.06;5006057;28;20275;-87
2023/01/16 08:39:54;;;;;;;71.70;27.90;;;;;;;2.39;78.46;93455.72;5006283;28;20026;-86
2023/01/16 08:53:15;;;;;;;63.00;27.13;;;;;;;2.81;77.00;93442.03;5007489;28;20052;-87
2023/01/16 08:55:41;;;;;;;58.58;29.02;;;;;;;2.83;76.27;93447.03;5006528;28;20263;-90
2023/01/16 08:58:06;;;;;;;61.90;27.88;;;;;;;2.80;76.18;93452.81;5005246;28;20308;-90
2023/01/16 09:00:33;;;;;;;58.67;25.98;;;;;;;2.83;76.30;93452.28;5006286;28;20033;-89
2023/01/16 09:03:01;;;;;;;70.75;29.67;;;;;;;2.84;76.08;93445.94;5006753;28;20023;-88
2023/01/16 09:05:27;;;;;;;69.75;30.05;;;;;;;2.86;76.76;93446.47;5007514;28;20045;-88
2023/01/16 09:07:53;;;;;;;72.13;29.73;;;;;;;2.88;76.13;93436.44;5006797;28;20030;-89
2023/01/16 09:10:19;;;;;;;80.20;31.17;;;;;;;2.82;76.32;93440.16;5006232;28;20030;-90
2023/01/16 09:15:29;;;;;;;63.75;28.48;;;;;;;2.81;76.62;93428.88;5005907;28;20022;-87
2023/01/16 09:17:54;;;;;;;72.68;30.30;;;;;;;2.87;76.56;93427.00;5005512;28;20022;-85
2023/01/16 09:20:20;;;;;;;72.03;31.17;;;;;;;2.91;76.43;93437.72;5005300;28;20030;-85
2023/01/16 09:22:49;;;;;;;76.22;30.00;;;;;;;2.94;76.46;93419.53;5004011;28;20018;-85
2023/01/16 09:25:14;;;;;;;68.25;28.63;;;;;;;3.03;76.09;93406.56;5004051;28;20022;-83
2023/01/16 09:27:39;;;;;;;66.72;30.08;;;;;;;3.15;75.85;93406.19;5004059;28;20227;-85
2023/01/16 09:30:06;;;;;;;67.90;28.92;;;;;;;3.32;76.09;93398.69;5004025;28;20022;-84
2023/01/16 09:32:33;;;;;;;63.90;29.15;;;;;;;3.45;75.82;93393.81;5005132;28;20311;-88
2023/01/16 09:34:59;;;;;;;59.53;26.23;;;;;;;3.65;75.77;93392.81;5005167;28;20018;-86
2023/01/16 09:37:24;;;;;;;57.50;22.63;;;;;;;3.73;73.59;93400.88;5004980;28;20093;-88
2023/01/16 09:39:49;;;;;;;56.22;25.73;;;;;;;3.63;73.03;93401.00;5005331;28;20213;-87
2023/01/16 09:45:20;;;;;;;51.47;22.45;;;;;;;3.46;73.62;93401.44;5005242;28;20168;-85
2023/01/16 09:47:57;;;;;;;57.85;25.63;;;;;;;3.45;74.28;93393.81;5004670;28;20220;-84
2023/01/16 09:50:39;;;;;;;50.90;22.95;;;;;;;3.55;74.26;93377.91;5005096;28;20026;-88
2023/01/16 09:59:00;;;;;;;38.05;18.15;;;;;;;4.18;72.46;93361.03;5003423;28;20046;-90
2023/01/16 10:01:33;;;;;;;39.33;18.13;;;;;;;4.36;71.88;93370.81;5005317;28;20046;-88
2023/01/16 10:04:23;;;;;;;36.40;18.05;;;;;;;4.60;70.30;93356.75;5004682;28;20022;-85
2023/01/16 10:07:06;;;;;;;32.17;16.33;;;;;;;4.61;69.18;93353.03;4997530;28;20291;-87
2023/01/16 10:09:53;;;;;;;40.15;17.67;;;;;;;4.56;69.21;93353.09;5004296;28;20029;-86
2023/01/16 10:12:18;;;;;;;42.22;18.33;;;;;;;4.49;69.28;93332.34;5004111;28;20101;-84
2023/01/16 10:14:56;;;;;;;52.40;20.30;;;;;;;4.48;70.40;93336.06;5004055;28;20011;-86
2023/01/16 10:17:48;;;;;;;42.35;18.63;;;;;;;4.53;69.68;93340.50;5004168;28;20130;-86
2023/01/16 10:20:24;;;;;;;;;;;;;;;4.57;69.62;93333.56;5004845;28;20038;-86
2023/01/16 10:23:01;;;;;;;39.17;16.67;;;;;;;4.63;69.42;93327.13;5004102;28;20135;-87
2023/01/16 10:25:35;;;;;;;34.22;16.42;;;;;;;4.66;69.07;93321.28;5004272;28;20260;-86
2023/01/16 10:28:04;;;;;;;43.60;19.20;;;;;;;4.71;68.99;93312.50;5004297;28;20129;-84
2023/01/16 10:30:45;;;;;;;45.70;18.20;;;;;;;4.74;69.16;93309.25;5004071;28;20018;-88
2023/01/16 10:33:28;;;;;;;32.40;15.17;;;;;;;4.86;69.67;93282.41;5004314;28;20037;-88
2023/01/16 10:35:56;;;;;;;34.50;14.60;;;;;;;5.04;68.95;93294.75;5004351;28;20028;-87
2023/01/16 10:38:45;;;;;;;22.25;11.32;;;;;;;5.13;67.60;93282.44;5004087;28;20065;-84
2023/01/16 10:49:52;;;;;;;31.52;11.10;;;;;;;5.33;63.93;93270.72;5003625;28;20036;-86
2023/01/16 10:52:17;;;;;;;33.83;14.65;;;;;;;5.22;65.30;93250.84;5003747;28;20026;-86
2023/01/16 10:54:43;;;;;;;38.15;15.65;;;;;;;5.25;65.65;93258.19;5005557;28;20089;-84
2023/01/16 10:57:16;;;;;;;29.83;13.75;;;;;;;5.26;64.97;93251.81;5005062;28;20069;-85
2023/01/16 10:59:46;;;;;;;25.95;13.80;;;;;;;5.25;65.67;93236.25;5004695;28;20018;-87
2023/01/16 11:02:43;;;;;;;30.60;13.95;;;;;;;5.31;66.22;93233.22;5003660;28;20022;-86
2023/01/16 11:05:32;;;;;;;30.40;14.13;;;;;;;5.47;66.36;93223.09;5003696;28;20026;-88
2023/01/16 11:08:13;;;;;;;25.52;13.55;;;;;;;5.58;65.79;93213.13;5003729;28;20022;-85
2023/01/16 11:10:41;;;;;;;30.67;11.93;;;;;;;5.71;64.91;93201.72;5003823;28;20029;-85
2023/01/16 11:18:57;;;;;;;29.05;11.80;;;;;;;5.94;62.64;93201.75;5003425;28;20029;-84
2023/01/16 11:21:29;;;;;;;22.52;12.50;;;;;;;5.97;62.53;93201.97;5003305;28;20022;-82
2023/01/16 11:24:11;;;;;;;27.83;9.95;;;;;;;6.03;60.97;93200.75;5003114;28;20046;-85
2023/01/16 11:26:37;;;;;;;29.35;12.05;;;;;;;6.10;60.87;93199.56;5001851;28;20050;-84
2023/01/16 11:29:03;;;;;;;36.92;12.45;;;;;;;6.06;61.09;93196.72;5002007;28;20029;-83
2023/01/16 11:31:30;;;;;;;21.65;10.95;;;;;;;6.03;61.51;93197.34;5002057;28;20267;-82
2023/01/16 11:34:04;;;;;;;24.13;10.82;;;;;;;6.09;60.30;93190.84;5002971;28;20092;-82
2023/01/16 11:36:34;;;;;;;22.13;10.80;;;;;;;6.02;60.07;93195.75;5002714;28;20065;-86
2023/01/16 11:39:00;;;;;;;28.27;11.15;;;;;;;5.99;59.97;93194.50;5003450;28;20022;-85
2023/01/16 11:41:33;;;;;;;24.17;12.60;;;;;;;5.97;60.50;93190.59;5003025;28;20027;-82
2023/01/16 11:47:22;;;;;;;26.98;11.90;;;;;;;6.16;61.36;93179.84;5003089;28;20065;-86
2023/01/16 11:49:51;;;;;;;24.17;12.25;;;;;;;6.16;60.96;93170.03;5006733;28;20033;-84
2023/01/16 11:52:29;;;;;;;30.52;14.30;;;;;;;6.05;61.96;93154.72;5005603;28;20026;-87
2023/01/16 11:54:56;;;;;;;35.63;14.95;;;;;;;6.15;61.41;93155.25;5007053;28;20026;-86
2023/01/16 11:57:24;;;;;;;35.70;16.05;;;;;;;6.22;61.65;93147.66;5007006;28;20038;-89
2023/01/16 12:00:05;;;;;;;41.88;17.75;;;;;;;6.30;61.64;93145.38;5006751;28;20023;-87
2023/01/16 12:02:51;;;;;;;38.45;16.13;;;;;;;6.50;61.60;93136.91;5007366;28;20042;-90
2023/01/16 12:08:20;;;;;;;38.65;17.17;;;;;;;6.80;61.25;93135.31;5005929;28;20072;-89
2023/01/16 12:11:06;;;;;;;39.00;17.15;;;;;;;7.03;60.61;93143.16;5006144;28;20037;-90
2023/01/16 12:16:48;;;;;;;34.90;16.67;;;;;;;7.27;59.57;93124.22;5004734;28;20031;-87
2023/01/16 12:19:32;;;;;;;38.75;15.80;;;;;;;7.36;59.04;93119.69;5003369;28;20053;-85
2023/01/16 12:22:06;;;;;;;31.25;13.23;;;;;;;7.53;58.13;93118.13;5003909;28;20234;-85
2023/01/16 12:24:37;;;;;;;31.75;15.02;;;;;;;7.57;57.23;93108.47;5006213;28;20038;-85
2023/01/16 12:27:22;;;;;;;27.63;13.40;;;;;;;7.67;56.36;93086.16;5006262;28;20034;-85
2023/01/16 12:30:14;;;;;;;43.35;16.27;;;;;;;7.83;56.50;93090.66;5006150;28;20089;-85
2023/01/16 12:32:39;;;;;;;;;;;;;;;7.83;56.55;93090.66;5006625;28;20030;-85
2023/01/16 12:35:05;;;;;;;33.92;14.00;;;;;;;7.69;56.26;93078.66;5006211;28;19925;-85